Trelew/Rawson, Argentina
Current Conditions -  °F | °C
As of 9:00 AM on Thursday 29 Jan 2015 (Local Time) from SAVC Reporting Station
Clear Clear  
Wind Chill: 21°   Ceiling: Unl
Heat Index: 21°   Visibility: 6mi
Dew Point: 10°   Wind: 0mph
Humidity: 49%   Direction: NA
Pressure: 30"   Gusts: NA
Location:  43.2°S, 65.27°W
Report Text: SAVC 291200Z 00000KT CAVOK 21/10 Q1016
Loading
Personal Weather Stations






























Interactive Weather Map New forecast layout! Learn more

10-Day Weather Forecast

Advertisements
Track Severe Weather on mobile